Portada
METAR-TAF:

METAR-TAF

Aeroports :

El Caire, Egipte

Aeroport Internacional del Caire

latitud: 30-08N, longitud: 031-24E, altitud: 64 m

Observació

L'informe es va fer fa 13 minuts, a les 01:00 UTC
Vent 3 kt del Sud/Sud-Oest
Temperatura 12°C
Humitat 62%
Pressió 1023 hPa
Visibilitat 10 km o més
sense núvols per sota de 1500 mi sense presència de cumulonimbus.

METAR: HECA 200100Z 21003KT CAVOK 12/05 Q1023 NOSIG

Hora: 03:13 (01:13 UTC)

Pronòstic

L'informe es va fer fa 2 hores i 13 minuts, a les 23:00 UTC
Pronòstic vàlid del 20 a les 00 UTC al 21 a les 06 UTC
Vent 10 kt del Oest
Visibilitat 10 km o més
Escasses núvols a una alçada de 2500 ft
Temporalment
l' 20 a les 01 UTC al 20 a les 06 UTC
Vent 3 kt amb direcció variable
Visibilitat: 3000 m

TAF: HECA 192300Z 2000/2106 28010KT 9999 FEW025 TEMPO 2001/2006 VRB03KT 3000 NSC

Observacions i pronòstics meteorològics de més de 4000 aeroports (METAR i TAF).

Les estacions disponibles són els punts grocs i vermells al mapa.

Posi el ratolí al punt desitjat per veure el nom de l'estació.

Feu clic per veure les observacions i els pronòstics meteorològics.

Per canviar el mapa: feu clic els botons verds amb una creu de color negre per apropar; al botó verd amb un guió per allunyar la imatge; o en les fletxes verdes per a mapes adjacents.


METAR-TAF: